Time;durP1;ratioP1;P1;durP2;ratioP2;P2;SDS_P1;SDS_P2;PMS_P1;PMS_P2;Temp;Humidity;BMP_temperature;BMP_pressure;BME280_temperature;BME280_humidity;BME280_pressure;Samples;Min_cycle;Max_cycle;Signal;HPM_P1;HPM_P2
2024/01/04 00:01:14;;;;;;;8.30;1.70;;;10.10;77.70;;;;;;5013306;28;20033;-78
2024/01/04 00:03:40;;;;;;;7.97;2.25;;;10.10;77.70;;;;;;5014109;28;20033;-77
2024/01/04 00:06:07;;;;;;;5.80;2.10;;;10.10;77.70;;;;;;5016756;28;20546;-74
2024/01/04 00:08:33;;;;;;;5.40;1.92;;;10.10;77.60;;;;;;5013011;28;20337;-78
2024/01/04 00:11:02;;;;;;;7.72;2.33;;;10.10;77.60;;;;;;5029435;28;20044;-73
2024/01/04 00:13:29;;;;;;;7.13;1.77;;;10.10;77.60;;;;;;5012245;28;20109;-80
2024/01/04 00:15:55;;;;;;;11.23;1.90;;;10.10;78.10;;;;;;5014246;28;20068;-77
2024/01/04 00:18:21;;;;;;;8.73;2.42;;;10.10;77.60;;;;;;5018010;28;20420;-81
2024/01/04 00:20:50;;;;;;;10.60;2.30;;;10.10;77.60;;;;;;5015087;28;20025;-71
2024/01/04 00:23:16;;;;;;;8.70;2.20;;;10.10;77.50;;;;;;5016924;28;20065;-72
2024/01/04 00:25:42;;;;;;;9.20;2.60;;;10.10;77.50;;;;;;5014540;28;20056;-72
2024/01/04 00:28:08;;;;;;;7.38;1.60;;;10.10;77.50;;;;;;5014877;28;20036;-76
2024/01/04 00:30:35;;;;;;;9.77;1.88;;;10.10;77.40;;;;;;5015972;28;20426;-77
2024/01/04 00:33:01;;;;;;;14.27;2.60;;;10.10;77.40;;;;;;5016744;28;20034;-75
2024/01/04 00:35:27;;;;;;;9.52;2.55;;;10.10;77.40;;;;;;5017665;28;20029;-77
2024/01/04 00:37:53;;;;;;;4.32;1.27;;;10.10;77.40;;;;;;5016901;28;20033;-80
2024/01/04 00:40:19;;;;;;;8.32;1.88;;;10.10;77.40;;;;;;5011542;28;20060;-75
2024/01/04 00:42:45;;;;;;;9.23;2.30;;;10.10;77.40;;;;;;5036223;28;20095;-70
2024/01/04 00:45:11;;;;;;;6.35;1.60;;;10.10;77.40;;;;;;5011449;28;20047;-72
2024/01/04 00:47:39;;;;;;;8.23;1.42;;;10.10;77.30;;;;;;5015051;28;20057;-72
2024/01/04 00:50:05;;;;;;;7.13;1.80;;;10.10;77.30;;;;;;5002520;28;20624;-72
2024/01/04 00:52:31;;;;;;;9.18;1.73;;;10.00;77.10;;;;;;5015316;28;20045;-71
2024/01/04 00:54:57;;;;;;;5.72;1.42;;;10.10;77.30;;;;;;5017572;28;20124;-71
2024/01/04 00:57:24;;;;;;;7.78;1.80;;;10.00;77.10;;;;;;5007644;28;20489;-81
2024/01/04 00:59:50;;;;;;;7.65;1.70;;;10.00;77.00;;;;;;5011440;28;20025;-77
2024/01/04 01:02:16;;;;;;;8.80;1.75;;;10.00;77.00;;;;;;5012307;28;20044;-76
2024/01/04 01:04:42;;;;;;;4.03;1.45;;;10.00;77.00;;;;;;5021280;28;20147;-75
2024/01/04 01:07:08;;;;;;;6.95;1.65;;;10.00;76.90;;;;;;5024218;28;20135;-74
2024/01/04 01:09:34;;;;;;;9.70;2.03;;;10.00;76.90;;;;;;5029292;28;20022;-79
2024/01/04 01:12:00;;;;;;;10.35;2.17;;;10.00;76.90;;;;;;5023960;28;20056;-72
2024/01/04 01:14:26;;;;;;;7.68;1.83;;;10.00;76.90;;;;;;5015829;28;20173;-75
2024/01/04 01:16:53;;;;;;;11.45;2.88;;;10.00;77.40;;;;;;5021044;28;20097;-73
2024/01/04 01:19:21;;;;;;;6.55;1.60;;;9.90;76.70;;;;;;5009985;28;20033;-75
2024/01/04 01:21:47;;;;;;;8.75;1.90;;;9.90;76.70;;;;;;5031304;28;20052;-76
2024/01/04 01:24:13;;;;;;;13.23;2.35;;;9.90;76.60;;;;;;5011598;28;20036;-75
2024/01/04 01:26:39;;;;;;;6.32;1.58;;;9.90;76.70;;;;;;5036723;28;20036;-79
2024/01/04 01:29:05;;;;;;;9.55;2.10;;;9.80;76.40;;;;;;5013257;28;20033;-80
2024/01/04 01:31:40;;;;;;;8.68;3.13;;;9.80;76.90;;;;;;5018762;28;20221;-80
2024/01/04 01:34:07;;;;;;;11.05;2.20;;;9.80;76.40;;;;;;5012369;28;20136;-80
2024/01/04 01:36:32;;;;;;;6.82;1.75;;;9.80;76.40;;;;;;5018578;28;20100;-82
2024/01/04 01:38:59;;;;;;;9.65;2.55;;;9.80;76.40;;;;;;5015416;28;20035;-83
2024/01/04 01:41:25;;;;;;;12.07;1.83;;;9.80;76.50;;;;;;5012489;28;20917;-76
2024/01/04 01:43:51;;;;;;;11.82;2.60;;;9.70;76.30;;;;;;5016848;28;20033;-87
2024/01/04 01:46:18;;;;;;;5.53;2.03;;;9.70;76.80;;;;;;5015931;28;20043;-83
2024/01/04 01:48:44;;;;;;;5.82;1.63;;;9.70;76.40;;;;;;5013509;28;20065;-75
2024/01/04 01:51:13;;;;;;;7.75;2.15;;;9.70;76.90;;;;;;5010614;28;20433;-72
2024/01/04 01:53:40;;;;;;;11.38;2.75;;;9.70;76.40;;;;;;5015327;28;20078;-77
2024/01/04 01:56:06;;;;;;;11.55;2.22;;;9.70;76.40;;;;;;5012548;28;20375;-77
2024/01/04 01:58:32;;;;;;;7.38;2.13;;;9.70;76.40;;;;;;5011830;28;20052;-72
2024/01/04 02:00:58;;;;;;;6.68;1.60;;;9.70;76.40;;;;;;5015904;28;20026;-72
2024/01/04 02:03:25;;;;;;;8.05;3.40;;;9.70;76.40;;;;;;5016009;28;20334;-76
2024/01/04 02:05:51;;;;;;;11.60;2.50;;;9.70;76.40;;;;;;5012806;28;20736;-79
2024/01/04 02:08:17;;;;;;;10.43;2.30;;;9.70;76.30;;;;;;5013503;28;20054;-74
2024/01/04 02:10:42;;;;;;;8.38;1.98;;;9.70;76.30;;;;;;5015604;28;20105;-75
2024/01/04 02:13:10;;;;;;;5.95;1.75;;;9.70;76.30;;;;;;5015489;28;20489;-72
2024/01/04 02:15:36;;;;;;;6.30;1.70;;;9.70;76.30;;;;;;5020648;28;20033;-75
2024/01/04 02:18:02;;;;;;;8.82;1.90;;;9.70;76.30;;;;;;5015745;28;20047;-76
2024/01/04 02:20:28;;;;;;;5.93;1.65;;;9.60;76.10;;;;;;5015879;28;20056;-71
2024/01/04 02:22:54;;;;;;;8.02;1.92;;;9.60;76.10;;;;;;5015698;28;20045;-77
2024/01/04 02:25:21;;;;;;;11.00;2.17;;;9.60;76.00;;;;;;5016827;28;20032;-77
2024/01/04 02:27:47;;;;;;;7.10;2.58;;;9.60;76.10;;;;;;5014509;28;20040;-74
2024/01/04 02:30:13;;;;;;;7.18;1.38;;;9.60;76.10;;;;;;5015168;28;20268;-77
2024/01/04 02:32:39;;;;;;;15.70;3.55;;;9.60;76.00;;;;;;5012960;28;20025;-74
2024/01/04 02:35:06;;;;;;;11.00;2.38;;;9.50;75.90;;;;;;5021041;28;20040;-77
2024/01/04 02:37:32;;;;;;;7.93;2.15;;;9.50;75.80;;;;;;5017302;28;20025;-78
2024/01/04 02:39:58;;;;;;;5.03;1.95;;;9.50;75.80;;;;;;5020688;28;20504;-82
2024/01/04 02:42:24;;;;;;;9.25;1.80;;;9.50;75.80;;;;;;5017288;28;20042;-78
2024/01/04 02:44:51;;;;;;;9.27;1.75;;;9.50;75.90;;;;;;5019882;28;20409;-76
2024/01/04 02:47:17;;;;;;;10.55;1.73;;;9.50;75.90;;;;;;5023830;28;20084;-76
2024/01/04 02:49:43;;;;;;;9.75;2.45;;;9.40;75.70;;;;;;5018676;28;20036;-78
2024/01/04 02:52:10;;;;;;;9.30;2.30;;;9.40;75.70;;;;;;5023405;28;20136;-79
2024/01/04 02:54:37;;;;;;;9.35;2.45;;;9.40;75.70;;;;;;5026088;28;20460;-77
2024/01/04 02:57:03;;;;;;;10.65;3.15;;;9.30;75.60;;;;;;5023880;28;20044;-78
2024/01/04 02:59:29;;;;;;;9.02;2.20;;;9.30;75.60;;;;;;5025595;28;20029;-71
2024/01/04 03:01:55;;;;;;;9.35;2.22;;;9.30;75.70;;;;;;5019364;28;20516;-75
2024/01/04 03:04:22;;;;;;;10.32;2.45;;;9.30;75.70;;;;;;5019109;28;20522;-80
2024/01/04 03:06:49;;;;;;;8.98;2.05;;;9.30;75.70;;;;;;5023222;28;20564;-78
2024/01/04 03:09:15;;;;;;;18.25;2.60;;;9.20;75.50;;;;;;5022217;28;20033;-79
2024/01/04 03:11:41;;;;;;;11.88;2.60;;;9.20;75.60;;;;;;5022851;28;20026;-77
2024/01/04 03:14:07;;;;;;;5.38;2.13;;;9.20;75.60;;;;;;5023487;28;20037;-77
2024/01/04 03:16:33;;;;;;;10.57;2.25;;;9.20;75.60;;;;;;5021031;28;20278;-76
2024/01/04 03:18:59;;;;;;;7.28;2.13;;;9.20;75.60;;;;;;5021410;28;20064;-76
2024/01/04 03:21:25;;;;;;;7.78;2.30;;;9.30;75.80;;;;;;5021285;28;20073;-77
2024/01/04 03:23:52;;;;;;;6.18;1.67;;;9.30;75.80;;;;;;5018715;28;20320;-79
2024/01/04 03:26:18;;;;;;;8.85;2.25;;;9.30;75.80;;;;;;5020743;28;20040;-77
2024/01/04 03:28:44;;;;;;;6.63;1.80;;;9.30;75.80;;;;;;5019950;28;20444;-80
2024/01/04 03:31:10;;;;;;;10.48;2.83;;;9.30;75.80;;;;;;5019573;28;20037;-75
2024/01/04 03:33:36;;;;;;;3.65;1.33;;;9.30;75.80;;;;;;5014785;28;20124;-79
2024/01/04 03:36:02;;;;;;;5.15;1.40;;;9.30;75.70;;;;;;5017100;28;20572;-76
2024/01/04 03:38:28;;;;;;;7.15;1.95;;;9.30;75.70;;;;;;5024704;28;20033;-73
2024/01/04 03:40:54;;;;;;;7.45;1.65;;;9.30;75.70;;;;;;5020157;28;20025;-75
2024/01/04 03:43:20;;;;;;;5.78;1.42;;;9.30;76.20;;;;;;5017318;28;20389;-78
2024/01/04 03:45:46;;;;;;;5.70;1.70;;;9.20;75.40;;;;;;5015949;28;20386;-78
2024/01/04 03:48:12;;;;;;;6.20;1.23;;;9.30;75.60;;;;;;5019195;28;20052;-86
2024/01/04 03:50:38;;;;;;;5.60;1.50;;;9.30;75.60;;;;;;5020495;28;20104;-76
2024/01/04 03:53:04;;;;;;;6.38;1.65;;;9.20;75.40;;;;;;5022433;28;20033;-75
2024/01/04 03:55:30;;;;;;;7.95;2.45;;;9.20;75.40;;;;;;5010717;28;20127;-83
2024/01/04 03:57:56;;;;;;;3.67;1.13;;;9.20;75.40;;;;;;5019297;28;20090;-75
2024/01/04 04:00:22;;;;;;;5.57;1.60;;;9.20;75.40;;;;;;5021908;28;20141;-74
2024/01/04 04:02:48;;;;;;;5.05;1.40;;;9.20;75.40;;;;;;5017916;28;20671;-75
2024/01/04 04:05:14;;;;;;;2.72;1.20;;;9.20;75.40;;;;;;5021743;28;20030;-77
2024/01/04 04:07:40;;;;;;;5.10;1.30;;;9.20;75.40;;;;;;5019757;28;20021;-76
2024/01/04 04:10:08;;;;;;;10.00;1.73;;;9.20;75.40;;;;;;5018066;28;20033;-79
2024/01/04 04:12:34;;;;;;;12.68;1.80;;;9.20;75.40;;;;;;5020940;28;20045;-77
2024/01/04 04:15:00;;;;;;;7.40;1.52;;;9.20;75.40;;;;;;5015733;28;20022;-89
2024/01/04 04:17:26;;;;;;;7.18;1.67;;;9.20;75.40;;;;;;5021933;28;20141;-90
2024/01/04 04:19:52;;;;;;;5.88;1.65;;;9.20;75.40;;;;;;5018230;28;20040;-76
2024/01/04 04:22:19;;;;;;;9.35;1.50;;;9.10;75.20;;;;;;5014755;28;20115;-80
2024/01/04 04:24:45;;;;;;;7.20;1.58;;;9.10;75.20;;;;;;5013039;28;20042;-80
2024/01/04 04:27:11;;;;;;;4.97;1.10;;;9.20;75.30;;;;;;5018948;28;20034;-80
2024/01/04 04:29:40;;;;;;;5.40;1.50;;;9.10;75.10;;;;;;5013043;28;20045;-77
2024/01/04 04:32:08;;;;;;;6.13;1.48;;;9.10;75.10;;;;;;5013549;28;20037;-72
2024/01/04 04:34:35;;;;;;;6.45;2.10;;;9.10;75.10;;;;;;5020059;28;20025;-79
2024/01/04 04:37:02;;;;;;;6.57;1.65;;;9.10;75.10;;;;;;5017980;28;20036;-78
2024/01/04 04:39:28;;;;;;;7.05;1.58;;;9.00;74.90;;;;;;5018791;28;20080;-75
2024/01/04 04:41:54;;;;;;;5.43;1.30;;;9.00;74.90;;;;;;5018176;28;20041;-75
2024/01/04 04:44:20;;;;;;;9.65;1.52;;;9.00;75.00;;;;;;5017885;28;20481;-78
2024/01/04 04:46:47;;;;;;;5.00;1.10;;;9.00;75.00;;;;;;5022144;28;20296;-78
2024/01/04 04:49:13;;;;;;;6.18;1.20;;;9.00;75.00;;;;;;5017798;28;20716;-79
2024/01/04 04:51:38;;;;;;;7.22;1.20;;;9.00;75.00;;;;;;5018307;28;20503;-87
2024/01/04 04:54:04;;;;;;;6.30;1.33;;;8.90;74.80;;;;;;5017393;28;20462;-86
2024/01/04 04:56:30;;;;;;;6.10;1.45;;;8.90;74.80;;;;;;5014979;28;20030;-79
2024/01/04 04:58:56;;;;;;;6.30;1.38;;;8.80;74.60;;;;;;5021797;28;20094;-75
2024/01/04 05:01:22;;;;;;;8.60;1.67;;;8.80;74.70;;;;;;5016501;28;20097;-79
2024/01/04 05:03:48;;;;;;;11.90;2.28;;;8.80;74.60;;;;;;5019462;28;20147;-77
2024/01/04 05:06:14;;;;;;;7.03;1.58;;;8.70;74.50;;;;;;5011674;28;20039;-79
2024/01/04 05:08:40;;;;;;;7.75;1.35;;;8.70;74.50;;;;;;5011890;28;20026;-77
2024/01/04 05:11:06;;;;;;;3.55;1.00;;;8.70;74.50;;;;;;5011407;28;20045;-79
2024/01/04 05:13:33;;;;;;;6.40;1.80;;;8.70;74.50;;;;;;5031106;28;20492;-81
2024/01/04 05:15:59;;;;;;;11.10;2.15;;;8.60;74.30;;;;;;5016212;28;20036;-74
2024/01/04 05:18:25;;;;;;;7.40;1.52;;;8.60;74.30;;;;;;5012322;28;20534;-79
2024/01/04 05:20:52;;;;;;;7.07;1.50;;;8.60;74.30;;;;;;5019261;28;21343;-75
2024/01/04 05:23:18;;;;;;;5.32;1.60;;;8.50;74.20;;;;;;5016109;28;20041;-78
2024/01/04 05:25:44;;;;;;;5.85;1.50;;;8.50;74.20;;;;;;5017330;28;20033;-76
2024/01/04 05:28:10;;;;;;;6.45;1.25;;;8.50;74.20;;;;;;5006320;28;20053;-83
2024/01/04 05:30:37;;;;;;;6.28;1.70;;;8.40;74.10;;;;;;5001613;28;20470;-81
2024/01/04 05:33:04;;;;;;;4.55;0.95;;;8.40;74.10;;;;;;5016269;28;20648;-80
2024/01/04 05:35:31;;;;;;;9.10;2.03;;;8.40;74.10;;;;;;5013427;28;20041;-77
2024/01/04 05:37:57;;;;;;;5.72;1.40;;;8.30;73.90;;;;;;5006533;28;20145;-78
2024/01/04 05:40:23;;;;;;;9.50;1.88;;;8.30;74.00;;;;;;5018841;28;20541;-82
2024/01/04 05:42:49;;;;;;;5.38;1.50;;;8.30;74.00;;;;;;5020307;28;20499;-78
2024/01/04 05:45:15;;;;;;;5.25;1.95;;;8.30;74.00;;;;;;5004470;28;20488;-81
2024/01/04 05:47:41;;;;;;;6.43;1.35;;;8.30;74.10;;;;;;5010758;28;20061;-76
2024/01/04 05:50:07;;;;;;;3.72;1.13;;;8.30;74.10;;;;;;5005199;28;20438;-78
2024/01/04 05:52:33;;;;;;;11.32;2.38;;;8.30;74.20;;;;;;5016215;28;20045;-80
2024/01/04 05:54:59;;;;;;;5.15;1.33;;;8.30;74.20;;;;;;5014913;28;20212;-80
2024/01/04 05:57:28;;;;;;;7.30;1.80;;;8.30;74.20;;;;;;5011152;28;20546;-81
2024/01/04 05:59:54;;;;;;;8.65;1.52;;;8.30;74.20;;;;;;5002470;28;20100;-79
2024/01/04 06:02:20;;;;;;;9.13;1.85;;;8.30;74.20;;;;;;5008951;28;20037;-82
2024/01/04 06:04:46;;;;;;;6.38;1.58;;;8.30;74.30;;;;;;5017140;28;20032;-81
2024/01/04 06:07:12;;;;;;;7.85;1.58;;;8.30;74.30;;;;;;5012526;28;20037;-81
2024/01/04 06:09:38;;;;;;;8.85;2.05;;;8.30;74.30;;;;;;5008015;28;20393;-77
2024/01/04 06:12:05;;;;;;;6.97;2.05;;;8.30;74.30;;;;;;5020503;28;20048;-73
2024/01/04 06:14:31;;;;;;;8.68;1.75;;;8.30;74.30;;;;;;5016904;28;20073;-76
2024/01/04 06:16:58;;;;;;;9.65;1.80;;;8.30;74.30;;;;;;5021832;28;20030;-76
2024/01/04 06:19:26;;;;;;;9.43;1.90;;;8.30;74.40;;;;;;5018088;28;20034;-73
2024/01/04 06:21:52;;;;;;;8.30;2.40;;;8.30;74.40;;;;;;5024980;28;20037;-71
2024/01/04 06:24:18;;;;;;;8.20;1.80;;;8.30;74.40;;;;;;5025315;28;20497;-77
2024/01/04 06:26:44;;;;;;;6.70;1.67;;;8.30;74.40;;;;;;5006563;28;20464;-81
2024/01/04 06:29:10;;;;;;;7.10;2.30;;;8.30;74.40;;;;;;5003891;28;20129;-89
2024/01/04 06:31:37;;;;;;;9.45;2.45;;;8.30;74.40;;;;;;5007434;28;20041;-80
2024/01/04 06:34:02;;;;;;;7.80;1.85;;;8.30;74.50;;;;;;5013944;28;20037;-87
2024/01/04 06:36:30;;;;;;;5.80;1.55;;;8.30;74.50;;;;;;5004404;28;20038;-88
2024/01/04 06:38:55;;;;;;;13.23;2.53;;;8.30;74.50;;;;;;5013006;28;20133;-90
2024/01/04 06:41:23;;;;;;;9.55;3.28;;;8.30;74.50;;;;;;5002777;28;20128;-89
2024/01/04 06:43:51;;;;;;;5.63;1.38;;;8.30;74.50;;;;;;5009745;28;20038;-85
2024/01/04 06:46:17;;;;;;;6.20;1.40;;;8.30;74.50;;;;;;5011975;28;20030;-76
2024/01/04 06:48:43;;;;;;;9.63;1.50;;;8.30;74.50;;;;;;5013360;28;20057;-78
2024/01/04 06:51:09;;;;;;;8.57;1.92;;;8.30;74.50;;;;;;5007023;28;20025;-72
2024/01/04 06:53:35;;;;;;;9.70;1.80;;;8.30;74.50;;;;;;5011323;28;20047;-82
2024/01/04 06:56:01;;;;;;;8.82;1.90;;;8.30;74.50;;;;;;5010072;28;20026;-78
2024/01/04 06:58:27;;;;;;;10.18;3.47;;;8.30;74.50;;;;;;5007190;28;20109;-85
2024/01/04 07:00:53;;;;;;;6.03;1.55;;;8.30;74.50;;;;;;5004775;28;20209;-83
2024/01/04 07:03:19;;;;;;;9.95;2.25;;;8.30;74.50;;;;;;5009904;28;20045;-87
2024/01/04 07:05:46;;;;;;;5.53;1.75;;;8.30;74.60;;;;;;5012339;28;20490;-84
2024/01/04 07:08:12;;;;;;;12.63;1.85;;;8.30;74.50;;;;;;5011161;28;20493;-77
2024/01/04 07:10:40;;;;;;;10.30;1.75;;;8.30;74.50;;;;;;5004845;28;20112;-83
2024/01/04 07:13:08;;;;;;;7.30;2.00;;;8.30;74.50;;;;;;5006643;28;20320;-81
2024/01/04 07:15:34;;;;;;;9.75;2.45;;;8.30;74.50;;;;;;5004943;28;20026;-77
2024/01/04 07:18:00;;;;;;;9.65;2.10;;;8.30;74.50;;;;;;5003434;28;20041;-83
2024/01/04 07:20:26;;;;;;;8.88;1.90;;;8.30;74.50;;;;;;5004888;28;20066;-83
2024/01/04 07:22:53;;;;;;;7.30;2.30;;;8.30;74.40;;;;;;5006838;28;20573;-84
2024/01/04 07:25:19;;;;;;;10.98;1.80;;;8.30;74.50;;;;;;5010013;28;20034;-84
2024/01/04 07:27:45;;;;;;;9.45;2.55;;;8.20;74.30;;;;;;5009385;28;20026;-84
2024/01/04 07:30:11;;;;;;;6.68;2.05;;;8.20;74.30;;;;;;5001541;28;20049;-80
2024/01/04 07:32:37;;;;;;;9.38;2.13;;;8.20;74.30;;;;;;5012062;28;20040;-85
2024/01/04 07:35:05;;;;;;;8.88;2.22;;;8.20;74.30;;;;;;5005939;28;20025;-73
2024/01/04 07:37:30;;;;;;;9.05;2.55;;;8.20;74.30;;;;;;5013092;28;20025;-84
2024/01/04 07:39:56;;;;;;;7.97;2.05;;;8.20;74.30;;;;;;5012166;28;20507;-85
2024/01/04 07:42:22;;;;;;;8.13;2.30;;;8.20;74.30;;;;;;5008719;28;20101;-83
2024/01/04 07:44:48;;;;;;;9.95;2.17;;;8.20;74.30;;;;;;5007421;28;20382;-79
2024/01/04 07:47:14;;;;;;;12.68;2.20;;;8.10;74.10;;;;;;5008070;28;20145;-77
2024/01/04 07:49:40;;;;;;;10.77;2.20;;;8.10;74.10;;;;;;5005606;28;20382;-72
2024/01/04 07:52:07;;;;;;;7.22;2.13;;;8.10;74.10;;;;;;5009739;28;20033;-72
2024/01/04 07:54:33;;;;;;;8.18;2.35;;;8.10;74.10;;;;;;5014813;28;20030;-73
2024/01/04 07:57:00;;;;;;;6.07;1.80;;;8.00;73.90;;;;;;5011463;28;20457;-77
2024/01/04 07:59:27;;;;;;;10.82;2.33;;;8.00;73.90;;;;;;5007856;28;20030;-80
2024/01/04 08:01:52;;;;;;;9.18;2.30;;;8.00;73.90;;;;;;5005954;28;20038;-71
2024/01/04 08:04:19;;;;;;;8.25;2.67;;;8.00;73.90;;;;;;5007963;28;20041;-76
2024/01/04 08:06:47;;;;;;;7.10;1.90;;;8.00;73.90;;;;;;5014492;28;20445;-75
2024/01/04 08:09:13;;;;;;;10.32;2.20;;;8.00;74.00;;;;;;5012364;28;20115;-84
2024/01/04 08:11:39;;;;;;;12.38;1.98;;;7.90;73.80;;;;;;5012532;28;20025;-82
2024/01/04 08:14:05;;;;;;;7.00;1.90;;;7.90;73.80;;;;;;5004961;28;20030;-78
2024/01/04 08:16:31;;;;;;;7.43;1.67;;;7.90;73.80;;;;;;5014829;28;20029;-77
2024/01/04 08:18:57;;;;;;;9.27;2.20;;;7.90;73.80;;;;;;5008839;28;20056;-71
2024/01/04 08:21:23;;;;;;;7.30;2.60;;;7.90;73.80;;;;;;5009257;28;20037;-75
2024/01/04 08:23:53;;;;;;;10.80;2.58;;;7.90;73.80;;;;;;5000534;28;20083;-75
2024/01/04 08:26:19;;;;;;;9.10;2.47;;;7.90;73.90;;;;;;5007512;28;20117;-71
2024/01/04 08:28:45;;;;;;;9.80;2.85;;;7.90;73.80;;;;;;5003918;28;20487;-81
2024/01/04 08:31:11;;;;;;;8.38;3.10;;;7.90;73.90;;;;;;5015723;28;20029;-75
2024/01/04 08:33:37;;;;;;;9.32;1.88;;;8.00;74.00;;;;;;5010782;28;20110;-76
2024/01/04 08:36:03;;;;;;;8.25;2.80;;;8.00;74.10;;;;;;5008586;28;20025;-72
2024/01/04 08:38:30;;;;;;;11.00;2.80;;;8.00;74.60;;;;;;5006286;28;20521;-74
2024/01/04 08:40:56;;;;;;;8.80;2.38;;;8.00;74.10;;;;;;5016455;28;20067;-72
2024/01/04 08:43:22;;;;;;;8.13;2.30;;;8.00;74.10;;;;;;5006563;28;20440;-72
2024/01/04 08:45:49;;;;;;;8.32;2.15;;;8.00;74.10;;;;;;5012100;28;20057;-71
2024/01/04 08:48:16;;;;;;;5.85;2.78;;;8.00;74.10;;;;;;5006478;28;20038;-73
2024/01/04 08:50:42;;;;;;;10.73;2.95;;;8.00;74.10;;;;;;5007606;28;20064;-77
2024/01/04 08:53:08;;;;;;;8.07;2.17;;;8.10;74.30;;;;;;5016837;28;20030;-72
2024/01/04 08:55:34;;;;;;;9.52;2.30;;;8.10;74.30;;;;;;5010822;28;20084;-79
2024/01/04 08:58:02;;;;;;;5.75;1.95;;;8.10;74.20;;;;;;5006956;28;20868;-76
2024/01/04 09:00:28;;;;;;;13.50;2.53;;;8.10;74.20;;;;;;5012655;28;20725;-80
2024/01/04 09:02:54;;;;;;;8.07;2.33;;;8.20;74.40;;;;;;5030062;28;20045;-77
2024/01/04 09:05:20;;;;;;;8.88;2.35;;;8.20;74.40;;;;;;5010202;28;20041;-78
2024/01/04 09:07:46;;;;;;;4.03;2.00;;;8.20;74.50;;;;;;5011565;28;20505;-77
2024/01/04 09:10:12;;;;;;;6.18;2.20;;;8.30;74.60;;;;;;5011764;28;20082;-80
2024/01/04 09:12:39;;;;;;;9.95;2.50;;;8.30;74.60;;;;;;5010162;28;20541;-80
2024/01/04 09:15:07;;;;;;;10.10;2.05;;;8.30;74.50;;;;;;5008069;28;20615;-80
2024/01/04 09:17:34;;;;;;;10.98;2.42;;;8.30;74.40;;;;;;5009777;28;20068;-77
2024/01/04 09:19:59;;;;;;;8.63;2.53;;;8.30;74.40;;;;;;5007893;28;20543;-77
2024/01/04 09:22:25;;;;;;;9.27;2.30;;;8.30;74.40;;;;;;5011970;28;20354;-77
2024/01/04 09:24:53;;;;;;;6.07;1.80;;;8.30;74.40;;;;;;5002749;28;20387;-77
2024/01/04 09:27:19;;;;;;;7.40;2.42;;;8.30;74.30;;;;;;5012020;28;20559;-79
2024/01/04 09:29:47;;;;;;;9.00;1.90;;;8.30;74.30;;;;;;5001290;28;20093;-77
2024/01/04 09:32:13;;;;;;;7.10;1.90;;;8.30;74.30;;;;;;5002145;28;20748;-77
2024/01/04 09:34:39;;;;;;;8.30;2.28;;;8.30;74.30;;;;;;5008462;28;20033;-74
2024/01/04 09:37:05;;;;;;;7.88;2.10;;;8.30;74.30;;;;;;5009634;28;20033;-77
2024/01/04 09:39:31;;;;;;;8.43;1.83;;;8.30;74.20;;;;;;5014944;28;20076;-74
2024/01/04 09:41:57;;;;;;;6.78;1.70;;;8.30;74.20;;;;;;5011344;28;20277;-74
2024/01/04 09:44:24;;;;;;;9.02;1.98;;;8.30;74.20;;;;;;5013463;28;20524;-71
2024/01/04 09:46:54;;;;;;;7.63;2.15;;;8.40;74.30;;;;;;5007801;28;20132;-73
2024/01/04 09:49:20;;;;;;;7.07;2.30;;;8.40;74.20;;;;;;5002367;28;20037;-80
2024/01/04 09:51:47;;;;;;;8.50;1.88;;;8.40;74.20;;;;;;5004498;28;20076;-77
2024/01/04 09:54:16;;;;;;;5.60;1.42;;;8.40;74.10;;;;;;5001283;28;20493;-79
2024/01/04 09:56:44;;;;;;;4.82;1.92;;;8.50;74.20;;;;;;5008947;28;20042;-80
2024/01/04 09:59:10;;;;;;;8.23;2.15;;;8.50;74.20;;;;;;5013030;28;20551;-76
2024/01/04 10:01:40;;;;;;;7.38;2.15;;;8.60;74.20;;;;;;5005857;28;20044;-80
2024/01/04 10:04:07;;;;;;;12.00;2.40;;;8.60;74.10;;;;;;4994042;28;20034;-78
2024/01/04 10:06:37;;;;;;;10.02;2.42;;;8.60;74.10;;;;;;5007417;28;20152;-77
2024/01/04 10:09:26;;;;;;;5.68;1.90;;;8.70;74.30;;;;;;5007535;28;20528;-78
2024/01/04 10:11:55;;;;;;;5.72;1.75;;;8.70;74.20;;;;;;5009499;28;20577;-74
2024/01/04 10:14:23;;;;;;;6.13;1.85;;;8.70;74.10;;;;;;4998840;28;20032;-77
2024/01/04 10:16:50;;;;;;;6.63;1.70;;;8.70;74.10;;;;;;5004381;28;20030;-78
2024/01/04 10:19:19;;;;;;;6.90;2.03;;;8.80;74.50;;;;;;5007157;28;20033;-80
2024/01/04 10:21:45;;;;;;;4.68;1.40;;;8.80;74.20;;;;;;5007719;28;20034;-73
2024/01/04 10:24:14;;;;;;;5.00;1.77;;;8.80;74.20;;;;;;5001740;28;20095;-79
2024/01/04 10:26:44;;;;;;;8.60;1.45;;;8.90;74.30;;;;;;5005404;28;20033;-79
2024/01/04 10:29:18;;;;;;;10.85;2.45;;;8.90;74.20;;;;;;4999341;28;20184;-79
2024/01/04 10:32:00;;;;;;;8.00;2.30;;;8.90;74.20;;;;;;5001622;28;20708;-79
2024/01/04 10:34:27;;;;;;;7.65;2.05;;;9.00;74.40;;;;;;5000780;28;20034;-77
2024/01/04 10:36:54;;;;;;;5.75;1.98;;;9.00;74.30;;;;;;5008862;28;20072;-72
2024/01/04 10:39:21;;;;;;;8.25;1.75;;;9.10;74.40;;;;;;5013475;28;20045;-78
2024/01/04 10:42:02;;;;;;;6.18;2.03;;;9.10;74.30;;;;;;5007333;28;20440;-77
2024/01/04 10:44:29;;;;;;;7.72;1.80;;;9.10;74.30;;;;;;5008006;28;20608;-77
2024/01/04 10:46:59;;;;;;;8.93;1.90;;;9.20;74.30;;;;;;5000304;28;20140;-76
2024/01/04 10:49:26;;;;;;;5.50;1.77;;;9.20;74.30;;;;;;5004954;28;20862;-80
2024/01/04 10:51:56;;;;;;;5.30;1.60;;;9.20;74.20;;;;;;5006045;28;20041;-71
2024/01/04 10:54:28;;;;;;;7.88;1.75;;;9.30;74.30;;;;;;5006423;28;20049;-79
2024/01/04 10:56:57;;;;;;;6.47;1.52;;;9.30;74.30;;;;;;5009232;28;20033;-80
2024/01/04 10:59:24;;;;;;;3.70;2.03;;;9.30;74.20;;;;;;5003711;28;20457;-79
2024/01/04 11:01:50;;;;;;;8.52;3.05;;;9.40;74.40;;;;;;5013434;28;20054;-75
2024/01/04 11:04:16;;;;;;;8.13;2.45;;;9.40;74.30;;;;;;5018470;28;20048;-80
2024/01/04 11:06:46;;;;;;;9.05;1.65;;;9.40;74.30;;;;;;5018957;28;20067;-79
2024/01/04 11:09:12;;;;;;;4.90;1.50;;;9.50;74.40;;;;;;5027985;28;20037;-78
2024/01/04 11:11:40;;;;;;;9.75;1.90;;;9.50;74.50;;;;;;5023062;28;20006;-75
2024/01/04 11:14:06;;;;;;;12.35;2.05;;;9.60;74.80;;;;;;5027960;28;20044;-76
2024/01/04 11:16:41;;;;;;;8.48;2.22;;;9.60;74.80;;;;;;5027474;28;20034;-72
2024/01/04 11:19:07;;;;;;;5.35;1.80;;;9.70;74.90;;;;;;5026334;28;20022;-77
2024/01/04 11:21:42;;;;;;;8.60;2.97;;;9.70;74.90;;;;;;5049849;28;20352;-77
2024/01/04 11:24:27;;;;;;;6.22;1.73;;;9.80;75.00;;;;;;5005966;28;20037;-77
2024/01/04 11:27:00;;;;;;;8.77;2.15;;;9.80;75.00;;;;;;5003643;28;20059;-79
2024/01/04 11:29:27;;;;;;;7.35;1.67;;;9.80;74.90;;;;;;5001342;28;20195;-80
2024/01/04 11:31:58;;;;;;;6.13;1.75;;;9.80;74.80;;;;;;5012891;28;20268;-78
2024/01/04 11:34:25;;;;;;;9.70;1.70;;;9.80;74.80;;;;;;5014755;28;20058;-76
2024/01/04 11:36:54;;;;;;;6.82;1.77;;;9.90;74.90;;;;;;5012400;28;20030;-78
2024/01/04 11:39:27;;;;;;;8.13;1.77;;;9.80;74.70;;;;;;5016159;28;20220;-77
2024/01/04 11:41:52;;;;;;;;;;;9.80;74.70;;;;;;5005436;28;20053;-79
2024/01/04 11:44:18;;;;;;;13.05;2.25;;;9.80;74.70;;;;;;5012790;28;19920;-77
2024/01/04 11:46:44;;;;;;;8.82;1.98;;;9.80;74.70;;;;;;5005799;28;20548;-80
2024/01/04 11:49:14;;;;;;;8.70;1.73;;;9.80;74.70;;;;;;5013803;28;20416;-79
2024/01/04 11:51:48;;;;;;;8.93;1.55;;;9.80;74.70;;;;;;5011120;28;20030;-76
2024/01/04 11:54:17;;;;;;;6.07;2.42;;;9.80;74.70;;;;;;5013184;28;20224;-74
2024/01/04 11:56:43;;;;;;;6.60;2.03;;;9.80;74.60;;;;;;5008605;28;20032;-73
2024/01/04 11:59:15;;;;;;;7.65;2.10;;;9.80;74.70;;;;;;5009164;28;20029;-76
2024/01/04 12:01:43;;;;;;;9.80;3.42;;;9.80;74.70;;;;;;5029549;28;20320;-76
2024/01/04 12:04:13;;;;;;;6.85;1.98;;;9.80;74.60;;;;;;5001166;28;20207;-74
2024/01/04 12:06:41;;;;;;;9.27;2.40;;;9.80;74.60;;;;;;5011716;28;20037;-76
2024/01/04 12:09:09;;;;;;;10.15;1.90;;;9.80;74.60;;;;;;5005981;28;20429;-76
2024/01/04 12:11:36;;;;;;;8.98;2.30;;;9.80;74.50;;;;;;4999488;28;20033;-77
2024/01/04 12:14:03;;;;;;;8.05;2.15;;;9.80;74.50;;;;;;5006780;28;20493;-74
2024/01/04 12:16:30;;;;;;;5.70;1.60;;;9.80;74.50;;;;;;5008478;28;20079;-76
2024/01/04 12:18:57;;;;;;;8.10;1.67;;;9.80;74.50;;;;;;5008569;28;20033;-75
2024/01/04 12:21:24;;;;;;;5.97;1.95;;;9.80;74.40;;;;;;5003858;28;20076;-78
2024/01/04 12:23:52;;;;;;;8.45;2.03;;;9.80;74.40;;;;;;5010824;28;20512;-80
2024/01/04 12:26:23;;;;;;;6.50;2.25;;;9.80;74.30;;;;;;5000727;28;20053;-79
2024/01/04 12:28:53;;;;;;;8.20;1.85;;;9.80;74.30;;;;;;5017395;28;20060;-79
2024/01/04 12:31:25;;;;;;;8.70;2.03;;;9.80;74.20;;;;;;5005111;28;20494;-77
2024/01/04 12:33:57;;;;;;;7.50;3.03;;;9.80;74.20;;;;;;5005580;28;20504;-79
2024/01/04 12:36:24;;;;;;;7.20;2.03;;;9.80;74.20;;;;;;5012943;28;20069;-74
2024/01/04 12:38:54;;;;;;;9.48;2.25;;;9.90;74.40;;;;;;5016700;28;20076;-79
2024/01/04 12:41:29;;;;;;;9.27;2.10;;;9.90;74.30;;;;;;5009749;28;20346;-79
2024/01/04 12:43:56;;;;;;;9.27;2.35;;;9.90;74.20;;;;;;5009123;28;20087;-81
2024/01/04 12:46:23;;;;;;;8.57;2.00;;;9.90;74.20;;;;;;5012506;28;20148;-79
2024/01/04 12:48:52;;;;;;;4.57;2.20;;;10.00;74.30;;;;;;5009821;28;20061;-80
2024/01/04 12:51:26;;;;;;;7.85;2.83;;;10.00;74.30;;;;;;5007763;28;20033;-76
2024/01/04 12:53:52;;;;;;;6.38;1.95;;;10.00;74.20;;;;;;5013276;28;20144;-79